Time;durP1;ratioP1;P1;durP2;ratioP2;P2;SDS_P1;SDS_P2;PMS_P1;PMS_P2;Temp;Humidity;BMP_temperature;BMP_pressure;BME280_temperature;BME280_humidity;BME280_pressure;Samples;Min_cycle;Max_cycle;Signal;HPM_P1;HPM_P2
2023/11/19 00:00:52;;;;;;;4.83;4.43;;;7.90;99.90;;;;;;15249726;23;20100;-82
2023/11/19 00:06:57;;;;;;;5.30;4.55;;;8.00;99.90;;;;;;15253846;23;20261;-82
2023/11/19 00:12:59;;;;;;;4.93;4.53;;;8.10;99.90;;;;;;15256278;23;20021;-83
2023/11/19 00:19:01;;;;;;;4.45;4.05;;;8.20;99.90;;;;;;15261208;23;20021;-83
2023/11/19 00:25:05;;;;;;;4.90;4.28;;;8.40;99.90;;;;;;15253939;23;20456;-83
2023/11/19 00:31:07;;;;;;;3.90;3.60;;;8.50;99.90;;;;;;15255130;23;20339;-83
2023/11/19 00:37:09;;;;;;;4.10;3.80;;;8.70;99.90;;;;;;15257074;23;20036;-84
2023/11/19 00:43:11;;;;;;;4.50;3.90;;;8.70;99.90;;;;;;15254769;23;20033;-84
2023/11/19 00:49:15;;;;;;;3.70;3.40;;;8.80;99.90;;;;;;15255582;23;20021;-84
2023/11/19 00:55:17;;;;;;;3.80;3.50;;;8.70;99.90;;;;;;15251762;22;20029;-83
2023/11/19 01:01:21;;;;;;;3.78;3.47;;;8.80;99.90;;;;;;15249536;23;20026;-84
2023/11/19 01:07:24;;;;;;;4.13;3.83;;;8.80;99.90;;;;;;15221254;23;20053;-83
2023/11/19 01:13:26;;;;;;;3.88;3.58;;;8.90;99.90;;;;;;15248115;23;20056;-82
2023/11/19 01:19:28;;;;;;;3.85;3.42;;;8.90;99.90;;;;;;15248309;23;20029;-85
2023/11/19 01:25:30;;;;;;;3.97;3.60;;;8.90;99.90;;;;;;15240916;23;20084;-85
2023/11/19 01:31:33;;;;;;;3.95;3.60;;;9.00;99.90;;;;;;15248050;23;20052;-82
2023/11/19 01:37:36;;;;;;;4.40;4.10;;;9.00;99.90;;;;;;15251749;23;20022;-82
2023/11/19 01:43:41;;;;;;;4.72;4.32;;;9.10;99.90;;;;;;15253670;23;20369;-82
2023/11/19 01:49:43;;;;;;;5.13;4.72;;;9.30;99.90;;;;;;15253887;23;20032;-84
2023/11/19 01:55:47;;;;;;;6.70;6.10;;;9.40;99.90;;;;;;15254627;23;20447;-83
2023/11/19 02:01:51;;;;;;;7.43;6.60;;;9.50;99.90;;;;;;15254923;23;20030;-83
2023/11/19 02:08:03;;;;;;;7.68;6.93;;;9.70;99.90;;;;;;15254629;23;20021;-84
2023/11/19 02:14:05;;;;;;;7.53;6.72;;;9.70;99.90;;;;;;15253019;23;20022;-84
2023/11/19 02:20:11;;;;;;;8.20;7.40;;;9.70;99.90;;;;;;15253439;23;20026;-83
2023/11/19 02:26:36;;;;;;;7.78;7.00;;;9.80;99.90;;;;;;15250829;22;20072;-85
2023/11/19 02:32:40;;;;;;;7.45;6.75;;;9.80;99.90;;;;;;15254726;23;20112;-83
2023/11/19 02:38:42;;;;;;;8.00;7.30;;;9.90;99.90;;;;;;15246960;23;20025;-84
2023/11/19 02:44:45;;;;;;;8.27;7.43;;;9.90;99.90;;;;;;15253614;23;20359;-83
2023/11/19 02:50:48;;;;;;;8.27;7.47;;;9.90;99.90;;;;;;15254090;23;20017;-84
2023/11/19 02:56:55;;;;;;;9.38;8.43;;;10.00;99.90;;;;;;15259419;23;20025;-83
2023/11/19 03:03:09;;;;;;;10.07;7.93;;;10.10;99.90;;;;;;15255330;22;20387;-84
2023/11/19 03:09:12;;;;;;;;;;;10.10;99.90;;;;;;15257693;23;20029;-81
2023/11/19 03:15:15;;;;;;;10.90;9.45;;;10.20;99.90;;;;;;15252381;23;19924;-82
2023/11/19 03:21:17;;;;;;;14.73;11.43;;;10.30;99.90;;;;;;15254598;23;20092;-83
2023/11/19 03:27:19;;;;;;;13.23;11.45;;;10.40;99.90;;;;;;15251900;23;20025;-81
2023/11/19 03:33:21;;;;;;;17.35;12.40;;;10.40;99.90;;;;;;15251593;23;20017;-81
2023/11/19 03:39:25;;;;;;;16.83;14.10;;;10.50;99.90;;;;;;15254140;23;20040;-81
2023/11/19 03:45:27;;;;;;;15.60;13.30;;;10.60;99.90;;;;;;15256384;23;20459;-82
2023/11/19 03:51:29;;;;;;;17.50;13.73;;;10.60;99.90;;;;;;15248298;23;20029;-82
2023/11/19 03:57:31;;;;;;;15.55;12.95;;;10.70;99.90;;;;;;15257613;23;20017;-81
2023/11/19 04:03:33;;;;;;;19.33;13.00;;;10.70;99.90;;;;;;15256196;23;20063;-82
2023/11/19 04:09:37;;;;;;;16.00;13.43;;;10.70;99.90;;;;;;15265070;23;20032;-83
2023/11/19 04:15:39;;;;;;;16.77;13.47;;;10.80;99.90;;;;;;15267347;23;20021;-82
2023/11/19 04:21:41;;;;;;;18.38;14.77;;;10.80;99.90;;;;;;15269596;23;20332;-82
2023/11/19 04:27:47;;;;;;;20.25;15.35;;;10.90;99.90;;;;;;15307802;23;20044;-83
2023/11/19 04:33:49;;;;;;;19.08;14.20;;;11.00;99.90;;;;;;15304653;23;20049;-84
2023/11/19 04:39:52;;;;;;;18.02;15.43;;;11.00;99.90;;;;;;15315281;23;20056;-84
2023/11/19 04:45:54;;;;;;;18.75;15.82;;;11.10;99.90;;;;;;15301516;23;20049;-83
2023/11/19 04:51:56;;;;;;;21.23;17.20;;;11.00;99.90;;;;;;15304393;22;20021;-82
2023/11/19 04:57:58;;;;;;;20.95;16.15;;;11.10;99.90;;;;;;15292374;22;20071;-82
2023/11/19 05:04:04;;;;;;;15.30;13.35;;;11.10;99.90;;;;;;15280331;23;20026;-84
2023/11/19 05:10:08;;;;;;;15.65;12.52;;;11.20;99.90;;;;;;15270730;23;20089;-82
2023/11/19 05:16:13;;;;;;;17.70;11.45;;;11.10;99.90;;;;;;15261025;23;20414;-83
2023/11/19 05:22:16;;;;;;;17.33;11.25;;;11.20;99.90;;;;;;15254358;23;20096;-83
2023/11/19 05:28:19;;;;;;;13.23;10.75;;;11.20;99.90;;;;;;15250023;23;20053;-84
2023/11/19 05:34:21;;;;;;;13.95;9.95;;;11.10;99.90;;;;;;15247883;23;20018;-85
2023/11/19 05:40:23;;;;;;;13.82;8.27;;;11.30;99.90;;;;;;15237361;23;20034;-84
2023/11/19 05:46:27;;;;;;;14.10;7.10;;;11.30;99.90;;;;;;15243447;23;20037;-84
2023/11/19 05:52:33;;;;;;;10.25;5.70;;;11.40;99.90;;;;;;15242156;23;20032;-83
2023/11/19 05:58:35;;;;;;;12.13;5.22;;;11.40;99.90;;;;;;15244585;23;20053;-81
2023/11/19 06:04:37;;;;;;;11.25;5.72;;;11.50;99.90;;;;;;15239303;23;20029;-83
2023/11/19 06:10:40;;;;;;;10.77;4.65;;;11.40;99.90;;;;;;15242162;23;20047;-80
2023/11/19 06:16:43;;;;;;;15.32;4.40;;;11.40;99.90;;;;;;15234725;23;20103;-82
2023/11/19 06:22:46;;;;;;;8.10;4.10;;;11.40;99.90;;;;;;15238839;23;20025;-84
2023/11/19 06:28:48;;;;;;;13.73;4.28;;;11.40;99.90;;;;;;15238251;23;20367;-81
2023/11/19 06:34:50;;;;;;;12.57;4.80;;;11.40;99.90;;;;;;15245587;23;20021;-82
2023/11/19 06:40:52;;;;;;;12.73;4.60;;;11.30;99.90;;;;;;15243483;23;20310;-80
2023/11/19 06:46:56;;;;;;;9.93;4.63;;;11.10;99.90;;;;;;15253416;23;20112;-83
2023/11/19 06:53:01;;;;;;;16.08;3.88;;;11.00;99.90;;;;;;15249016;23;20026;-81
2023/11/19 06:59:03;;;;;;;17.27;3.78;;;11.00;99.90;;;;;;15248818;23;20089;-82
2023/11/19 07:05:08;;;;;;;13.10;3.72;;;11.10;99.90;;;;;;15250511;23;20047;-83
2023/11/19 07:11:11;;;;;;;;;;;11.30;99.90;;;;;;15252407;23;20653;-85
2023/11/19 07:17:13;;;;;;;13.70;3.83;;;11.20;99.90;;;;;;15250724;23;19928;-83
2023/11/19 07:23:18;;;;;;;16.38;4.43;;;11.30;99.90;;;;;;15254484;23;20393;-83
2023/11/19 07:29:21;;;;;;;12.07;3.53;;;11.20;99.90;;;;;;15254155;23;20530;-82
2023/11/19 07:35:26;;;;;;;8.77;3.78;;;11.20;99.90;;;;;;15248409;23;20054;-83
2023/11/19 07:41:28;;;;;;;7.38;3.03;;;11.10;99.90;;;;;;15248909;23;20235;-83
2023/11/19 07:47:31;;;;;;;18.02;3.90;;;11.20;99.90;;;;;;15250540;23;20025;-84
2023/11/19 07:53:33;;;;;;;9.63;3.50;;;11.20;99.90;;;;;;15249434;23;20124;-83
2023/11/19 07:59:36;;;;;;;14.65;4.15;;;11.20;99.90;;;;;;15246980;23;20022;-83
2023/11/19 08:05:38;;;;;;;18.30;4.07;;;11.10;99.90;;;;;;15252897;23;20060;-86
2023/11/19 08:11:43;;;;;;;15.10;3.55;;;11.20;99.90;;;;;;15244756;23;20032;-85
2023/11/19 08:17:47;;;;;;;13.70;3.83;;;11.20;99.90;;;;;;15247200;23;20029;-85
2023/11/19 08:23:49;;;;;;;16.73;3.15;;;11.20;99.90;;;;;;15249871;23;20021;-83
2023/11/19 08:29:57;;;;;;;13.88;4.00;;;11.30;99.90;;;;;;15248929;23;20105;-84
2023/11/19 08:36:00;;;;;;;17.20;3.88;;;11.30;99.90;;;;;;15247520;23;20029;-84
2023/11/19 08:42:02;;;;;;;15.85;3.83;;;11.20;99.90;;;;;;15249235;23;20021;-84
2023/11/19 08:48:05;;;;;;;15.23;3.58;;;11.20;99.90;;;;;;15247026;23;20030;-82
2023/11/19 08:54:07;;;;;;;13.00;3.53;;;11.20;99.90;;;;;;15247465;23;20026;-81
2023/11/19 09:00:11;;;;;;;13.75;3.03;;;11.20;99.90;;;;;;15237193;23;20071;-84
2023/11/19 09:06:13;;;;;;;16.30;3.40;;;11.20;99.90;;;;;;15244734;23;20036;-82
2023/11/19 09:12:18;;;;;;;13.63;3.35;;;11.20;99.90;;;;;;15248854;23;20045;-84
2023/11/19 09:18:20;;;;;;;16.05;3.88;;;11.00;99.90;;;;;;15244924;23;20072;-83
2023/11/19 09:24:22;;;;;;;21.60;4.22;;;11.10;99.90;;;;;;15231856;23;20025;-85
2023/11/19 09:30:25;;;;;;;19.10;4.28;;;11.00;99.90;;;;;;15222360;23;20025;-85
2023/11/19 09:36:27;;;;;;;17.73;4.32;;;10.90;99.90;;;;;;15228787;23;20028;-82
2023/11/19 09:42:32;;;;;;;17.67;5.25;;;10.70;99.90;;;;;;15239052;23;20076;-85
2023/11/19 09:48:36;;;;;;;15.85;5.13;;;10.70;99.90;;;;;;15240451;23;20155;-84
2023/11/19 09:54:38;;;;;;;;;;;10.70;99.90;;;;;;15241413;23;20017;-84
2023/11/19 10:00:41;;;;;;;16.75;4.45;;;10.70;99.90;;;;;;15246691;23;19917;-83
2023/11/19 10:06:43;;;;;;;14.30;4.60;;;10.80;99.90;;;;;;15242908;23;20018;-83
2023/11/19 10:12:51;;;;;;;22.42;5.05;;;10.90;99.90;;;;;;15246593;23;20022;-82
2023/11/19 10:18:57;;;;;;;10.13;4.45;;;10.70;99.90;;;;;;15239231;23;20110;-84
2023/11/19 10:24:59;;;;;;;16.25;3.75;;;10.80;99.90;;;;;;15226280;23;20103;-81
2023/11/19 10:31:04;;;;;;;19.77;4.25;;;10.90;99.90;;;;;;15233805;23;20047;-83
2023/11/19 10:37:07;;;;;;;16.33;3.97;;;10.80;99.90;;;;;;15241024;23;20435;-83
2023/11/19 10:43:09;;;;;;;16.15;4.70;;;10.90;99.90;;;;;;15244890;23;20049;-85
2023/11/19 10:49:12;;;;;;;22.77;5.00;;;11.00;99.90;;;;;;15245431;23;20057;-83
2023/11/19 10:55:18;;;;;;;20.88;4.05;;;11.20;99.90;;;;;;15248577;23;20039;-84
2023/11/19 11:01:23;;;;;;;12.25;4.05;;;11.60;99.90;;;;;;15253623;23;20510;-81
2023/11/19 11:07:26;;;;;;;13.27;3.17;;;11.80;99.90;;;;;;15249201;23;20041;-82
2023/11/19 11:13:42;;;;;;;13.20;3.67;;;11.90;99.90;;;;;;15253943;23;20024;-82
2023/11/19 11:19:45;;;;;;;13.15;3.30;;;11.80;99.90;;;;;;15253020;23;20088;-81
2023/11/19 11:26:29;;;;;;;15.20;3.28;;;11.80;99.90;;;;;;15253127;23;20028;-82
2023/11/19 11:32:44;;;;;;;23.30;5.28;;;11.90;99.90;;;;;;15256519;23;20022;-81
2023/11/19 11:38:49;;;;;;;15.05;3.40;;;12.00;99.90;;;;;;15256699;23;20149;-83
2023/11/19 11:45:02;;;;;;;21.45;3.60;;;11.90;99.90;;;;;;15260320;23;20037;-81
2023/11/19 11:51:06;;;;;;;;;;;11.70;99.90;;;;;;15255113;23;20044;-84
2023/11/19 11:57:11;;;;;;;14.75;4.03;;;11.60;99.90;;;;;;15252548;23;19920;-83
2023/11/19 12:03:19;;;;;;;12.48;3.85;;;11.50;99.90;;;;;;15249686;23;20041;-82
2023/11/19 12:09:21;;;;;;;11.75;2.97;;;11.50;99.90;;;;;;15246508;23;20033;-84
2023/11/19 12:15:25;;;;;;;13.75;3.30;;;11.40;99.90;;;;;;15242265;23;20017;-82
2023/11/19 12:21:29;;;;;;;16.27;3.83;;;11.60;99.90;;;;;;15246640;23;20458;-83
2023/11/19 12:27:33;;;;;;;17.67;4.00;;;11.80;99.90;;;;;;15249445;23;20030;-82
2023/11/19 12:33:35;;;;;;;14.80;3.60;;;11.80;99.90;;;;;;15248347;23;20026;-82
2023/11/19 12:39:38;;;;;;;14.43;3.60;;;11.70;99.90;;;;;;15245647;23;20022;-81
2023/11/19 12:45:40;;;;;;;17.75;3.97;;;11.60;99.90;;;;;;15245936;23;20604;-82
2023/11/19 12:51:41;;;;;;;15.30;3.63;;;11.50;99.90;;;;;;15249718;23;20021;-82
2023/11/19 12:57:43;;;;;;;11.05;3.70;;;11.40;99.90;;;;;;15245032;23;20443;-82
2023/11/19 13:03:46;;;;;;;9.40;3.20;;;11.40;99.90;;;;;;15250140;23;20522;-82
2023/11/19 13:09:48;;;;;;;17.27;4.20;;;11.40;99.90;;;;;;15244036;23;20526;-82
2023/11/19 13:15:50;;;;;;;19.08;3.95;;;11.30;99.90;;;;;;15245019;23;20162;-84
2023/11/19 13:21:53;;;;;;;13.20;3.60;;;11.30;99.90;;;;;;15246936;23;20029;-83
2023/11/19 13:27:55;;;;;;;14.23;3.00;;;11.20;99.90;;;;;;15241547;23;20243;-84
2023/11/19 13:33:58;;;;;;;11.25;3.05;;;11.40;99.90;;;;;;15246750;23;20227;-82
2023/11/19 13:40:01;;;;;;;10.20;3.33;;;11.50;99.90;;;;;;15248199;23;20071;-83
2023/11/19 13:46:03;;;;;;;16.88;3.10;;;11.60;99.90;;;;;;15252831;23;20344;-82
2023/11/19 13:52:06;;;;;;;13.68;2.67;;;11.50;99.90;;;;;;15247738;23;20416;-81
2023/11/19 13:58:08;;;;;;;11.93;3.40;;;11.50;99.90;;;;;;15250569;23;20025;-82
2023/11/19 14:04:11;;;;;;;14.18;2.95;;;11.60;99.90;;;;;;15248516;23;20033;-83
2023/11/19 14:10:16;;;;;;;12.20;2.40;;;11.60;99.90;;;;;;15247442;23;20030;-82
2023/11/19 14:16:18;;;;;;;14.20;2.83;;;11.70;99.90;;;;;;15248687;23;20354;-81
2023/11/19 14:22:20;;;;;;;16.77;2.83;;;11.70;99.90;;;;;;15251634;23;20029;-81
2023/11/19 14:28:22;;;;;;;17.80;3.05;;;11.60;99.90;;;;;;15253431;23;20029;-81
2023/11/19 14:34:26;;;;;;;12.60;2.67;;;11.80;99.90;;;;;;15251273;23;20025;-83
2023/11/19 14:40:28;;;;;;;12.00;2.47;;;11.70;99.90;;;;;;15252625;23;20351;-83
2023/11/19 14:46:33;;;;;;;14.30;2.83;;;11.80;99.90;;;;;;15253399;23;20021;-82
2023/11/19 14:52:36;;;;;;;11.25;2.42;;;11.80;99.90;;;;;;15255898;23;20040;-83
2023/11/19 14:58:39;;;;;;;12.73;3.10;;;11.60;99.90;;;;;;15251762;23;20591;-83
2023/11/19 15:04:44;;;;;;;12.07;2.88;;;11.50;99.90;;;;;;15251052;23;20151;-83
2023/11/19 15:10:46;;;;;;;13.35;3.72;;;11.30;99.90;;;;;;15251797;23;20403;-81
2023/11/19 15:16:51;;;;;;;13.50;2.88;;;11.10;99.90;;;;;;15246852;23;20075;-81
2023/11/19 15:22:53;;;;;;;11.60;2.38;;;11.20;99.90;;;;;;15250455;23;20022;-82
2023/11/19 15:28:57;;;;;;;9.80;2.55;;;11.50;99.90;;;;;;15248577;23;20509;-81
2023/11/19 15:34:59;;;;;;;9.48;2.42;;;11.50;99.90;;;;;;15251642;23;20022;-81
2023/11/19 15:41:02;;;;;;;11.73;2.55;;;11.50;99.90;;;;;;15250078;23;20029;-82
2023/11/19 15:47:04;;;;;;;10.02;2.40;;;11.40;99.90;;;;;;15254025;23;20026;-81
2023/11/19 15:53:07;;;;;;;12.93;2.63;;;11.20;99.90;;;;;;15255855;23;20026;-80
2023/11/19 15:59:09;;;;;;;8.25;2.00;;;11.10;99.90;;;;;;15255773;23;20029;-80
2023/11/19 16:05:11;;;;;;;10.57;2.50;;;11.00;99.90;;;;;;15257672;23;20064;-81
2023/11/19 16:11:16;;;;;;;9.90;2.40;;;11.10;99.90;;;;;;15259085;23;20033;-80
2023/11/19 16:17:19;;;;;;;9.48;2.58;;;11.00;99.90;;;;;;15259042;23;20018;-81
2023/11/19 16:23:21;;;;;;;9.02;2.40;;;10.90;99.90;;;;;;15261028;23;20435;-80
2023/11/19 16:29:23;;;;;;;10.93;2.53;;;11.00;99.90;;;;;;15246431;23;20565;-81
2023/11/19 16:35:26;;;;;;;10.43;2.17;;;11.10;99.90;;;;;;15255151;23;20025;-81
2023/11/19 16:41:28;;;;;;;11.27;3.00;;;11.20;99.90;;;;;;15257709;23;20029;-81
2023/11/19 16:47:44;;;;;;;;;;;11.00;99.90;;;;;;15257044;23;20443;-82
2023/11/19 16:53:48;;;;;;;8.23;3.25;;;10.90;99.90;;;;;;15261640;23;19921;-82
2023/11/19 16:59:55;;;;;;;12.10;2.95;;;10.80;99.90;;;;;;15295710;23;20022;-82
2023/11/19 17:05:57;;;;;;;8.55;2.90;;;10.80;99.90;;;;;;15281072;23;20029;-81
2023/11/19 17:11:59;;;;;;;11.48;3.08;;;10.90;99.90;;;;;;15269302;23;20021;-82
2023/11/19 17:18:01;;;;;;;10.77;2.95;;;10.80;99.90;;;;;;15265641;23;20028;-80
2023/11/19 17:24:03;;;;;;;14.63;3.22;;;10.80;99.90;;;;;;15261247;23;20029;-81
2023/11/19 17:30:06;;;;;;;14.52;3.75;;;10.80;99.90;;;;;;15263030;23;20125;-82
2023/11/19 17:36:08;;;;;;;17.27;3.60;;;10.90;99.90;;;;;;15266861;23;20073;-83
2023/11/19 17:42:10;;;;;;;7.28;3.00;;;10.80;99.90;;;;;;15274555;23;20022;-81
2023/11/19 17:48:12;;;;;;;9.75;3.20;;;10.70;99.90;;;;;;15274304;23;20029;-81
2023/11/19 17:54:15;;;;;;;12.55;3.38;;;10.60;99.90;;;;;;15271798;23;20026;-82
2023/11/19 18:00:17;;;;;;;12.10;2.67;;;10.70;99.90;;;;;;15271478;23;20102;-81
2023/11/19 18:06:19;;;;;;;10.93;2.85;;;10.80;99.90;;;;;;15271910;23;20025;-82
2023/11/19 18:12:22;;;;;;;10.90;2.85;;;10.90;99.90;;;;;;15263487;23;20425;-82
2023/11/19 18:18:24;;;;;;;11.38;2.67;;;10.80;99.90;;;;;;15256879;23;20032;-82
2023/11/19 18:24:26;;;;;;;7.45;2.58;;;10.70;99.90;;;;;;15262227;23;20032;-81
2023/11/19 18:30:29;;;;;;;12.20;2.75;;;10.70;99.90;;;;;;15258009;23;20025;-81
2023/11/19 18:36:37;;;;;;;7.60;2.60;;;10.70;99.90;;;;;;15261672;23;20037;-82
2023/11/19 18:42:40;;;;;;;8.23;2.30;;;10.70;99.90;;;;;;15263123;23;20029;-84
2023/11/19 18:48:43;;;;;;;10.50;2.92;;;10.90;99.90;;;;;;15262571;23;20398;-82
2023/11/19 18:54:45;;;;;;;11.05;2.90;;;10.80;99.90;;;;;;15268813;23;20056;-82
2023/11/19 19:00:47;;;;;;;12.48;3.60;;;10.90;99.90;;;;;;15264474;23;20030;-81
2023/11/19 19:06:49;;;;;;;10.77;3.38;;;10.90;99.90;;;;;;15264455;23;20027;-82
2023/11/19 19:12:51;;;;;;;12.88;3.80;;;10.70;99.90;;;;;;15258939;23;20025;-84
2023/11/19 19:18:56;;;;;;;7.40;3.42;;;10.60;99.90;;;;;;15254875;23;20062;-80
2023/11/19 19:24:58;;;;;;;12.25;3.80;;;10.60;99.90;;;;;;15258523;23;20021;-80
2023/11/19 19:31:00;;;;;;;10.15;3.90;;;10.60;99.90;;;;;;15249593;23;20029;-81
2023/11/19 19:37:03;;;;;;;9.93;3.97;;;10.50;99.90;;;;;;15253944;23;20025;-80
2023/11/19 19:43:06;;;;;;;5.93;3.67;;;10.50;99.90;;;;;;15251531;23;20434;-81
2023/11/19 19:49:08;;;;;;;11.10;4.00;;;10.40;99.90;;;;;;15245416;23;20029;-82
2023/11/19 19:55:11;;;;;;;8.15;3.70;;;10.40;99.90;;;;;;15254602;23;20029;-79
2023/11/19 20:01:14;;;;;;;7.38;3.28;;;10.40;99.90;;;;;;15247842;22;20601;-80
2023/11/19 20:07:16;;;;;;;8.93;4.00;;;10.40;99.90;;;;;;15246834;23;20440;-83
2023/11/19 20:13:22;;;;;;;;;;;10.30;99.90;;;;;;15245717;23;20022;-82
2023/11/19 20:19:24;;;;;;;7.28;3.85;;;10.20;99.90;;;;;;15247045;23;19920;-83
2023/11/19 20:25:27;;;;;;;5.82;4.32;;;10.10;99.90;;;;;;15244024;23;20061;-83
2023/11/19 20:31:28;;;;;;;8.10;4.30;;;10.20;99.90;;;;;;15238408;23;20028;-83
2023/11/19 20:37:31;;;;;;;5.43;3.78;;;10.10;99.90;;;;;;15234951;23;20094;-82
2023/11/19 20:43:33;;;;;;;6.15;4.35;;;10.10;99.90;;;;;;15205430;23;20053;-82
2023/11/19 20:49:36;;;;;;;5.35;4.05;;;10.00;99.90;;;;;;15256351;23;20451;-84
2023/11/19 20:55:39;;;;;;;6.13;4.22;;;10.00;99.90;;;;;;15252915;23;20018;-83
2023/11/19 21:01:41;;;;;;;6.50;4.30;;;10.00;99.90;;;;;;15250059;23;20526;-81
2023/11/19 21:07:43;;;;;;;8.00;5.57;;;10.10;99.90;;;;;;15254219;23;20025;-83
2023/11/19 21:13:45;;;;;;;7.07;5.20;;;10.10;99.90;;;;;;15248182;23;20036;-84
2023/11/19 21:19:49;;;;;;;7.22;5.28;;;10.00;99.90;;;;;;15244875;23;20017;-83
2023/11/19 21:25:52;;;;;;;7.82;5.50;;;10.00;99.90;;;;;;15252474;23;20017;-84
2023/11/19 21:31:54;;;;;;;6.20;5.40;;;10.10;99.90;;;;;;15251434;23;20025;-85
2023/11/19 21:37:56;;;;;;;5.68;4.63;;;10.00;99.90;;;;;;15254953;23;20108;-85
2023/11/19 21:44:00;;;;;;;4.82;4.40;;;10.00;99.90;;;;;;15251362;23;20033;-82
2023/11/19 21:50:06;;;;;;;5.22;4.82;;;10.10;99.90;;;;;;15248157;23;20056;-84
2023/11/19 21:56:08;;;;;;;6.28;4.63;;;10.00;99.90;;;;;;15250726;23;20366;-83
2023/11/19 22:02:14;;;;;;;4.35;3.78;;;10.00;99.90;;;;;;15249516;23;20033;-83
2023/11/19 22:08:16;;;;;;;5.93;4.55;;;10.00;99.90;;;;;;15249795;23;20022;-86
2023/11/19 22:14:19;;;;;;;4.97;4.57;;;10.10;99.90;;;;;;15249739;23;20014;-83
2023/11/19 22:20:23;;;;;;;4.82;4.43;;;10.10;99.90;;;;;;15246856;23;20044;-85
2023/11/19 22:26:26;;;;;;;4.65;4.25;;;10.20;99.90;;;;;;15243719;23;20443;-83
2023/11/19 22:32:29;;;;;;;4.78;4.28;;;10.10;99.90;;;;;;15248886;23;20025;-84
2023/11/19 22:38:35;;;;;;;5.03;3.92;;;10.10;99.90;;;;;;15244588;23;20017;-83
2023/11/19 22:44:38;;;;;;;4.57;4.18;;;10.20;99.90;;;;;;15243556;23;20029;-82
2023/11/19 22:50:40;;;;;;;4.40;4.10;;;10.20;99.90;;;;;;15249672;23;20073;-82
2023/11/19 22:56:42;;;;;;;4.45;4.15;;;10.20;99.90;;;;;;15245132;23;20025;-82
2023/11/19 23:02:44;;;;;;;4.78;4.35;;;10.20;99.90;;;;;;15246696;23;20026;-80
2023/11/19 23:08:46;;;;;;;5.28;4.88;;;10.20;99.90;;;;;;15246453;23;20151;-82
2023/11/19 23:14:48;;;;;;;5.20;4.90;;;10.20;99.90;;;;;;15246610;23;20471;-84
2023/11/19 23:20:50;;;;;;;5.53;5.13;;;10.20;99.90;;;;;;15251465;22;20032;-82
2023/11/19 23:26:52;;;;;;;5.57;5.07;;;10.30;99.90;;;;;;15252381;23;20323;-81
2023/11/19 23:32:54;;;;;;;6.75;6.15;;;10.30;99.90;;;;;;15248507;23;20032;-82
2023/11/19 23:38:56;;;;;;;7.75;7.15;;;10.40;99.90;;;;;;15250388;23;20028;-82
2023/11/19 23:44:59;;;;;;;7.97;7.28;;;10.50;99.90;;;;;;15252867;23;20030;-83
2023/11/19 23:51:01;;;;;;;9.68;8.98;;;10.50;99.90;;;;;;15250797;23;20140;-82
2023/11/19 23:57:06;;;;;;;8.30;7.72;;;10.50;99.90;;;;;;15247183;23;20500;-78
